createdAt,value
2018-09-11T00:01:47.729Z,95.70
2018-09-11T00:04:16.347Z,96.10
2018-09-11T00:06:44.849Z,96.40
2018-09-11T00:09:14.145Z,96.80
2018-09-11T00:11:43.707Z,96.90
2018-09-11T00:14:12.330Z,97.40
2018-09-11T00:16:40.996Z,97.60
2018-09-11T00:19:09.553Z,97.70
2018-09-11T00:21:38.068Z,98.10
2018-09-11T00:24:06.660Z,98.30
2018-09-11T00:26:35.244Z,98.50
2018-09-11T00:29:03.737Z,98.60
2018-09-11T00:31:32.345Z,98.70
2018-09-11T00:34:00.868Z,98.90
2018-09-11T00:36:29.625Z,99.10
2018-09-11T00:38:58.120Z,99.40
2018-09-11T00:41:26.561Z,99.40
2018-09-11T00:43:55.196Z,99.60
2018-09-11T00:46:23.709Z,99.90
2018-09-11T00:48:52.398Z,99.90
2018-09-11T00:51:20.945Z,99.80
2018-09-11T00:53:49.375Z,99.60
2018-09-11T00:56:17.872Z,99.30
2018-09-11T00:58:46.321Z,99.50
2018-09-11T01:01:14.756Z,99.40
2018-09-11T01:03:43.293Z,99.40
2018-09-11T01:06:11.771Z,99.50
2018-09-11T01:08:40.220Z,99.50
2018-09-11T01:11:10.643Z,99.50
2018-09-11T01:13:39.075Z,99.50
2018-09-11T01:16:08.670Z,99.40
2018-09-11T01:18:37.131Z,99.30
2018-09-11T01:21:05.718Z,99.40
2018-09-11T01:23:34.199Z,99.40
2018-09-11T01:26:02.697Z,99.40
2018-09-11T01:28:31.137Z,99.40
2018-09-11T01:30:59.632Z,99.40
2018-09-11T01:33:28.129Z,99.40
2018-09-11T01:35:56.654Z,99.50
2018-09-11T01:38:25.237Z,99.50
2018-09-11T01:40:53.813Z,99.60
2018-09-11T01:43:22.243Z,99.60
2018-09-11T01:45:50.778Z,99.70
2018-09-11T01:48:19.305Z,99.80
2018-09-11T01:50:47.731Z,99.90
2018-09-11T01:53:16.223Z,99.90
2018-09-11T01:55:44.659Z,99.90
2018-09-11T01:58:13.096Z,99.90
2018-09-11T02:00:41.569Z,99.90
2018-09-11T02:03:10.045Z,99.90
2018-09-11T02:05:38.460Z,99.90
2018-09-11T02:08:07.046Z,99.90
2018-09-11T02:10:35.521Z,99.90
2018-09-11T02:13:03.971Z,99.90
2018-09-11T02:15:32.424Z,99.90
2018-09-11T02:18:00.847Z,99.80
2018-09-11T02:20:29.391Z,99.80
2018-09-11T02:22:57.816Z,99.90
2018-09-11T02:25:26.298Z,99.80
2018-09-11T02:27:54.816Z,99.70
2018-09-11T02:30:23.377Z,99.70
2018-09-11T02:32:51.814Z,99.60
2018-09-11T02:35:20.255Z,99.50
2018-09-11T02:37:48.884Z,99.50
2018-09-11T02:40:17.333Z,99.40
2018-09-11T02:42:45.744Z,99.40
2018-09-11T02:45:14.177Z,99.40
2018-09-11T02:47:42.620Z,99.50
2018-09-11T02:50:11.159Z,99.60
2018-09-11T02:52:39.782Z,99.30
2018-09-11T02:55:08.683Z,99.30
2018-09-11T02:57:37.134Z,99.30
2018-09-11T03:00:05.592Z,99.30
2018-09-11T03:02:34.008Z,99.20
2018-09-11T03:05:02.502Z,99.10
2018-09-11T03:07:30.955Z,98.80
2018-09-11T03:09:59.423Z,98.90
2018-09-11T03:12:27.843Z,98.70
2018-09-11T03:14:56.261Z,98.70
2018-09-11T03:17:24.821Z,98.50
2018-09-11T03:19:53.340Z,98.40
2018-09-11T03:22:21.750Z,98.40
2018-09-11T03:24:50.273Z,98.30
2018-09-11T03:27:18.773Z,98.20
2018-09-11T03:29:47.248Z,98.30
2018-09-11T03:32:15.799Z,98.40
2018-09-11T03:34:44.240Z,98.40
2018-09-11T03:37:12.659Z,98.50
2018-09-11T03:39:41.083Z,98.70
2018-09-11T03:42:09.532Z,98.90
2018-09-11T03:44:37.989Z,98.90
2018-09-11T03:47:06.415Z,98.80
2018-09-11T03:49:34.875Z,98.70
2018-09-11T03:52:03.445Z,98.50
2018-09-11T03:54:31.905Z,98.40
2018-09-11T03:57:00.390Z,98.20
2018-09-11T03:59:28.805Z,98.00
2018-09-11T04:01:57.279Z,97.70
2018-09-11T04:04:25.713Z,97.40
2018-09-11T04:06:54.158Z,97.30
2018-09-11T04:09:22.748Z,97.20
2018-09-11T04:11:51.241Z,96.90
2018-09-11T04:14:19.716Z,96.70
2018-09-11T04:16:48.154Z,96.50
2018-09-11T04:19:16.604Z,96.30
2018-09-11T04:21:45.474Z,96.20
2018-09-11T04:24:13.974Z,96.00
2018-09-11T04:26:42.691Z,95.80
2018-09-11T04:29:11.335Z,95.40
2018-09-11T04:31:39.785Z,95.30
2018-09-11T04:34:08.347Z,95.30
2018-09-11T04:36:36.850Z,95.30
2018-09-11T04:39:07.156Z,95.20
2018-09-11T04:41:35.692Z,95.10
2018-09-11T04:44:04.172Z,95.00
2018-09-11T04:46:32.628Z,94.90
2018-09-11T04:49:01.088Z,94.80
2018-09-11T04:51:29.591Z,94.80
2018-09-11T04:53:58.142Z,94.60
2018-09-11T04:56:26.602Z,94.50
2018-09-11T04:58:55.014Z,94.70
2018-09-11T05:01:23.506Z,94.50
2018-09-11T05:03:51.919Z,94.50
2018-09-11T05:06:20.446Z,94.50
2018-09-11T05:08:48.897Z,94.40
2018-09-11T05:11:17.384Z,94.40
2018-09-11T05:13:45.838Z,94.40
2018-09-11T05:16:14.265Z,94.30
2018-09-11T05:18:42.711Z,94.20
2018-09-11T05:21:11.138Z,94.30
2018-09-11T05:23:39.600Z,94.30
2018-09-11T05:26:08.100Z,94.30
2018-09-11T05:28:36.549Z,94.70
2018-09-11T05:31:05.425Z,94.90
2018-09-11T05:33:33.877Z,94.90
2018-09-11T05:36:02.300Z,94.80
2018-09-11T05:38:30.843Z,94.80
2018-09-11T05:40:59.275Z,94.80
2018-09-11T05:43:27.738Z,94.80
2018-09-11T05:45:56.191Z,94.60
2018-09-11T05:48:24.637Z,94.50
2018-09-11T05:50:53.098Z,94.50
2018-09-11T05:53:21.548Z,94.40
2018-09-11T05:55:49.993Z,94.20
2018-09-11T05:58:18.634Z,94.20
2018-09-11T06:00:47.049Z,93.90
2018-09-11T06:03:15.557Z,93.80
2018-09-11T06:05:44.045Z,93.80
2018-09-11T06:08:12.458Z,93.60
2018-09-11T06:10:40.920Z,93.30
2018-09-11T06:13:09.400Z,93.10
2018-09-11T06:15:37.867Z,93.00
2018-09-11T06:18:06.482Z,92.70
2018-09-11T06:20:34.915Z,92.40
2018-09-11T06:23:03.345Z,92.20
2018-09-11T06:25:38.415Z,91.70
2018-09-11T06:28:06.870Z,91.20
2018-09-11T06:30:36.413Z,90.70
2018-09-11T06:33:04.893Z,90.30
2018-09-11T06:35:33.386Z,90.00
2018-09-11T06:38:01.777Z,89.20
2018-09-11T06:40:30.229Z,88.10
2018-09-11T06:42:58.713Z,87.50
2018-09-11T06:45:27.185Z,84.00
2018-09-11T06:47:55.688Z,80.90
2018-09-11T06:50:24.118Z,76.40
2018-09-11T06:52:52.572Z,72.10
2018-09-11T06:55:21.002Z,69.70
2018-09-11T06:57:49.437Z,67.20
2018-09-11T07:00:17.955Z,64.80
2018-09-11T07:02:46.361Z,63.00
2018-09-11T07:05:14.801Z,60.00
2018-09-11T07:07:43.360Z,58.00
2018-09-11T07:10:11.816Z,55.40
2018-09-11T07:12:41.193Z,53.90
2018-09-11T07:15:09.645Z,52.30
2018-09-11T07:17:38.146Z,49.90
2018-09-11T07:20:07.707Z,48.70
2018-09-11T07:22:36.076Z,48.00
2018-09-11T07:25:04.809Z,48.60
2018-09-11T07:27:33.263Z,49.80
2018-09-11T07:30:01.712Z,50.80
2018-09-11T07:32:30.233Z,52.10
2018-09-11T07:34:58.689Z,52.30
2018-09-11T07:37:27.133Z,52.90
2018-09-11T07:39:55.542Z,53.50
2018-09-11T07:42:23.973Z,54.40
2018-09-11T07:44:52.408Z,55.20
2018-09-11T07:47:20.854Z,56.10
2018-09-11T07:49:49.314Z,56.70
2018-09-11T07:52:17.757Z,57.50
2018-09-11T07:54:46.244Z,57.60
2018-09-11T07:57:14.660Z,58.00
2018-09-11T07:59:43.127Z,56.80
2018-09-11T08:02:11.556Z,55.90
2018-09-11T08:04:40.012Z,55.80
2018-09-11T08:07:08.464Z,54.80
2018-09-11T08:09:36.965Z,53.50
2018-09-11T08:12:05.441Z,50.80
2018-09-11T08:14:33.822Z,49.00
2018-09-11T08:17:02.289Z,47.80
2018-09-11T08:19:30.752Z,47.80
2018-09-11T08:21:59.202Z,47.00
2018-09-11T08:24:27.657Z,47.10
2018-09-11T08:26:56.109Z,47.60
2018-09-11T08:29:24.722Z,46.80
2018-09-11T08:31:53.252Z,46.70
2018-09-11T08:34:21.812Z,45.80
2018-09-11T08:36:50.288Z,45.00
2018-09-11T08:39:18.764Z,44.10
2018-09-11T08:41:47.196Z,41.80
2018-09-11T08:44:15.679Z,40.90
2018-09-11T08:46:44.191Z,39.70
2018-09-11T08:49:12.604Z,37.60
2018-09-11T08:51:41.050Z,36.70
2018-09-11T08:54:09.452Z,36.20
2018-09-11T08:56:37.906Z,36.00
2018-09-11T08:59:06.388Z,34.80
2018-09-11T09:01:34.848Z,33.70
2018-09-11T09:04:03.281Z,32.70
2018-09-11T09:06:31.759Z,31.80
2018-09-11T09:09:03.332Z,31.30
2018-09-11T09:11:31.772Z,30.30
2018-09-11T09:14:00.426Z,30.70
2018-09-11T09:16:29.134Z,31.40
2018-09-11T09:18:58.114Z,31.30
2018-09-11T09:21:26.827Z,31.10
2018-09-11T09:23:55.704Z,31.20
2018-09-11T09:26:24.419Z,31.90
2018-09-11T09:28:53.195Z,31.50
2018-09-11T09:31:21.984Z,31.20
2018-09-11T09:33:50.789Z,30.70
2018-09-11T09:36:19.430Z,30.30
2018-09-11T09:38:47.850Z,29.60
2018-09-11T09:41:16.491Z,28.70
2018-09-11T09:43:44.971Z,28.30
2018-09-11T09:46:13.428Z,28.20
2018-09-11T09:48:41.912Z,27.80
2018-09-11T09:51:10.365Z,28.40
2018-09-11T09:53:38.835Z,28.30
2018-09-11T09:56:07.324Z,28.30
2018-09-11T09:58:35.791Z,28.20
2018-09-11T10:01:09.533Z,27.30
2018-09-11T10:03:38.033Z,27.60
2018-09-11T10:06:06.499Z,26.90
2018-09-11T10:08:35.234Z,26.50
2018-09-11T10:11:03.792Z,26.50
2018-09-11T10:13:32.304Z,26.40
2018-09-11T10:16:00.699Z,26.60
2018-09-11T10:18:29.140Z,26.50
2018-09-11T10:20:57.574Z,26.10
2018-09-11T10:23:26.022Z,26.10
2018-09-11T10:25:54.474Z,25.70
2018-09-11T10:28:22.893Z,25.30
2018-09-11T10:30:51.367Z,25.70
2018-09-11T10:33:19.797Z,25.80
2018-09-11T10:35:48.248Z,25.80
2018-09-11T10:38:17.069Z,25.60
2018-09-11T10:40:45.577Z,25.70
2018-09-11T10:43:14.067Z,26.10
2018-09-11T10:45:42.749Z,26.80
2018-09-11T10:48:11.253Z,27.00
2018-09-11T10:50:39.731Z,27.40
2018-09-11T10:53:08.195Z,28.00
2018-09-11T10:55:36.656Z,28.90
2018-09-11T10:58:05.623Z,29.80
2018-09-11T11:00:34.179Z,31.00
2018-09-11T11:03:02.810Z,32.30
2018-09-11T11:05:31.254Z,34.00
2018-09-11T11:07:59.763Z,35.70
2018-09-11T11:10:28.276Z,36.40
2018-09-11T11:12:56.738Z,37.50
2018-09-11T11:15:25.185Z,38.30
2018-09-11T11:17:53.605Z,38.90
2018-09-11T11:20:22.079Z,39.70
2018-09-11T11:22:50.477Z,39.90
2018-09-11T11:25:19.014Z,40.40
2018-09-11T11:27:47.441Z,40.40
2018-09-11T11:30:15.868Z,40.60
2018-09-11T11:32:44.336Z,41.20
2018-09-11T11:35:12.753Z,40.90
2018-09-11T11:37:41.214Z,41.20
2018-09-11T11:40:09.644Z,41.80
2018-09-11T11:42:38.214Z,41.80
2018-09-11T11:45:07.670Z,41.70
2018-09-11T11:47:36.162Z,42.20
2018-09-11T11:50:04.708Z,42.10
2018-09-11T11:52:33.220Z,42.00
2018-09-11T11:55:01.695Z,41.40
2018-09-11T11:57:30.808Z,41.60
2018-09-11T11:59:59.288Z,41.50
2018-09-11T12:02:27.730Z,41.30
2018-09-11T12:04:56.537Z,41.10
2018-09-11T12:07:25.065Z,41.10
2018-09-11T12:09:53.588Z,41.50
2018-09-11T12:12:22.212Z,41.60
2018-09-11T12:14:50.736Z,41.60
2018-09-11T12:17:19.257Z,42.60
2018-09-11T12:19:47.738Z,42.30
2018-09-11T12:22:16.253Z,42.20
2018-09-11T12:24:44.720Z,41.10
2018-09-11T12:27:13.177Z,41.90
2018-09-11T12:29:41.661Z,40.60
2018-09-11T12:32:10.159Z,41.00
2018-09-11T12:34:38.595Z,41.00
2018-09-11T12:37:07.115Z,41.30
2018-09-11T12:39:35.607Z,41.40
2018-09-11T12:42:04.084Z,41.40
2018-09-11T12:44:32.532Z,41.00
2018-09-11T12:47:01.083Z,41.20
2018-09-11T12:49:29.473Z,40.90
2018-09-11T12:51:57.953Z,40.70
2018-09-11T12:54:26.400Z,41.00
2018-09-11T12:56:54.854Z,40.50
2018-09-11T12:59:23.470Z,41.40
2018-09-11T13:01:51.903Z,40.90
2018-09-11T13:04:20.341Z,41.20
2018-09-11T13:06:48.800Z,41.00
2018-09-11T13:09:17.420Z,40.80
2018-09-11T13:11:45.813Z,40.80
2018-09-11T13:14:14.289Z,40.80
2018-09-11T13:16:44.166Z,40.80
2018-09-11T13:19:12.625Z,40.20
2018-09-11T13:21:41.074Z,40.10
2018-09-11T13:24:09.628Z,40.30
2018-09-11T13:26:38.114Z,40.70
2018-09-11T13:29:06.609Z,40.90
2018-09-11T13:31:35.084Z,40.80
2018-09-11T13:34:03.573Z,40.90
2018-09-11T13:36:32.037Z,40.90
2018-09-11T13:39:00.835Z,41.40
2018-09-11T13:41:29.300Z,40.90
2018-09-11T13:43:57.724Z,40.90
2018-09-11T13:46:26.208Z,41.00
2018-09-11T13:48:54.708Z,40.40
2018-09-11T13:51:23.335Z,40.50
2018-09-11T13:53:51.895Z,40.60
2018-09-11T13:56:20.351Z,40.30
2018-09-11T13:58:48.950Z,41.10
2018-09-11T14:01:17.433Z,40.70
2018-09-11T14:03:45.948Z,40.70
2018-09-11T14:06:14.552Z,40.60
2018-09-11T14:08:43.030Z,40.40
2018-09-11T14:11:11.558Z,40.10
2018-09-11T14:13:40.013Z,40.10
2018-09-11T14:16:08.581Z,40.00
2018-09-11T14:18:39.018Z,39.60
2018-09-11T14:21:07.610Z,39.50
2018-09-11T14:23:36.087Z,39.30
2018-09-11T14:26:04.709Z,39.50
2018-09-11T14:28:33.224Z,39.00
2018-09-11T14:31:01.776Z,39.30
2018-09-11T14:33:30.257Z,39.40
2018-09-11T14:35:58.812Z,39.10
2018-09-11T14:38:27.265Z,39.20
2018-09-11T14:40:55.748Z,39.80
2018-09-11T14:43:24.203Z,39.60
2018-09-11T14:45:52.756Z,39.40
2018-09-11T14:48:21.217Z,39.40
2018-09-11T14:50:49.650Z,39.50
2018-09-11T14:53:18.308Z,39.00
2018-09-11T14:55:46.813Z,39.00
2018-09-11T14:58:15.264Z,38.80
2018-09-11T15:00:43.760Z,38.50
2018-09-11T15:03:12.173Z,38.60
2018-09-11T15:05:40.681Z,38.30
2018-09-11T15:08:09.149Z,38.60
2018-09-11T15:10:37.591Z,38.30
2018-09-11T15:13:06.074Z,38.30
2018-09-11T15:15:34.556Z,38.10
2018-09-11T15:18:02.992Z,38.00
2018-09-11T15:20:31.474Z,38.10
2018-09-11T15:22:59.937Z,38.10
2018-09-11T15:25:28.398Z,38.40
2018-09-11T15:27:56.928Z,38.60
2018-09-11T15:30:26.059Z,38.60
2018-09-11T15:32:54.652Z,38.80
2018-09-11T15:35:23.166Z,39.00
2018-09-11T15:37:51.597Z,38.90
2018-09-11T15:40:20.104Z,38.60
2018-09-11T15:42:48.651Z,38.40
2018-09-11T15:45:17.160Z,38.20
2018-09-11T15:47:45.812Z,38.20
2018-09-11T15:50:14.257Z,38.00
2018-09-11T15:52:42.761Z,38.30
2018-09-11T15:55:11.273Z,38.50
2018-09-11T15:57:39.917Z,38.80
2018-09-11T16:00:08.490Z,38.70
2018-09-11T16:02:38.250Z,38.40
2018-09-11T16:05:06.734Z,38.40
2018-09-11T16:07:35.176Z,38.50
2018-09-11T16:10:03.774Z,38.70
2018-09-11T16:12:32.286Z,38.80
2018-09-11T16:15:00.757Z,39.00
2018-09-11T16:17:29.334Z,39.20
2018-09-11T16:19:57.835Z,39.40
2018-09-11T16:22:26.293Z,39.60
2018-09-11T16:24:54.893Z,39.70
2018-09-11T16:27:23.394Z,39.80
2018-09-11T16:29:51.919Z,39.80
2018-09-11T16:32:20.334Z,39.40
2018-09-11T16:34:48.736Z,40.10
2018-09-11T16:37:17.173Z,40.20
2018-09-11T16:39:45.906Z,40.20
2018-09-11T16:42:14.384Z,40.40
2018-09-11T16:44:42.810Z,40.60
2018-09-11T16:47:11.405Z,40.80
2018-09-11T16:49:39.839Z,40.80
2018-09-11T16:52:08.284Z,40.80
2018-09-11T16:54:36.783Z,40.90
2018-09-11T16:57:05.338Z,41.00
2018-09-11T16:59:33.782Z,40.90
2018-09-11T17:02:02.291Z,40.90
2018-09-11T17:04:30.759Z,41.10
2018-09-11T17:06:59.438Z,41.30
2018-09-11T17:09:27.887Z,41.50
2018-09-11T17:11:56.363Z,41.60
2018-09-11T17:14:24.986Z,41.80
2018-09-11T17:16:53.416Z,41.80
2018-09-11T17:19:21.836Z,41.90
2018-09-11T17:21:50.441Z,42.00
2018-09-11T17:24:19.052Z,42.20
2018-09-11T17:26:47.545Z,42.40
2018-09-11T17:29:16.093Z,42.40
2018-09-11T17:31:44.584Z,42.80
2018-09-11T17:34:13.127Z,42.80
2018-09-11T17:36:41.726Z,43.70
2018-09-11T17:39:11.511Z,43.10
2018-09-11T17:41:40.730Z,43.40
2018-09-11T17:44:09.713Z,43.70
2018-09-11T17:46:38.553Z,43.90
2018-09-11T17:49:07.068Z,44.00
2018-09-11T17:51:35.578Z,44.20
2018-09-11T17:54:04.894Z,44.50
2018-09-11T17:56:33.560Z,44.80
2018-09-11T17:59:02.027Z,45.10
2018-09-11T18:01:30.562Z,45.30
2018-09-11T18:03:59.331Z,45.60
2018-09-11T18:06:28.006Z,45.80
2018-09-11T18:08:56.915Z,46.00
2018-09-11T18:11:25.406Z,46.30
2018-09-11T18:13:54.010Z,46.40
2018-09-11T18:16:22.686Z,46.50
2018-09-11T18:18:51.204Z,46.80
2018-09-11T18:21:19.725Z,47.00
2018-09-11T18:23:48.213Z,47.10
2018-09-11T18:26:16.764Z,47.30
2018-09-11T18:28:45.168Z,47.50
2018-09-11T18:31:13.903Z,47.60
2018-09-11T18:33:42.481Z,47.80
2018-09-11T18:36:11.059Z,48.00
2018-09-11T18:38:39.551Z,48.10
2018-09-11T18:41:08.021Z,48.40
2018-09-11T18:43:36.522Z,48.60
2018-09-11T18:46:05.038Z,48.80
2018-09-11T18:54:40.277Z,49.80
2018-09-11T18:57:08.724Z,50.30
2018-09-11T18:59:37.270Z,50.70
2018-09-11T19:02:05.936Z,51.00
2018-09-11T19:04:34.442Z,51.30
2018-09-11T19:07:03.110Z,51.30
2018-09-11T19:09:31.560Z,51.40
2018-09-11T19:12:00.342Z,51.10
2018-09-11T19:14:28.856Z,52.00
2018-09-11T19:16:57.408Z,52.20
2018-09-11T19:19:25.868Z,52.40
2018-09-11T19:21:54.410Z,52.50
2018-09-11T19:24:22.936Z,52.80
2018-09-11T19:26:51.470Z,52.70
2018-09-11T19:29:19.869Z,53.60
2018-09-11T19:31:48.321Z,54.00
2018-09-11T19:34:16.856Z,54.30
2018-09-11T19:36:45.265Z,55.00
2018-09-11T19:39:13.802Z,55.20
2018-09-11T19:41:42.418Z,55.80
2018-09-11T19:44:10.946Z,56.60
2018-09-11T19:46:39.421Z,56.50
2018-09-11T19:49:07.914Z,57.00
2018-09-11T19:51:36.392Z,57.50
2018-09-11T19:54:05.001Z,58.20
2018-09-11T19:56:33.575Z,58.60
2018-09-11T19:59:02.034Z,59.00
2018-09-11T20:01:30.537Z,59.70
2018-09-11T20:03:58.980Z,60.10
2018-09-11T20:06:27.505Z,60.90
2018-09-11T20:08:56.060Z,61.60
2018-09-11T20:11:24.557Z,62.20
2018-09-11T20:13:53.045Z,63.00
2018-09-11T20:16:21.565Z,64.00
2018-09-11T20:18:50.088Z,64.60
2018-09-11T20:21:18.497Z,65.30
2018-09-11T20:23:47.069Z,65.80
2018-09-11T20:26:15.561Z,66.20
2018-09-11T20:28:44.173Z,66.70
2018-09-11T20:31:12.958Z,67.10
2018-09-11T20:33:41.596Z,68.80
2018-09-11T20:36:10.229Z,68.30
2018-09-11T20:38:38.970Z,68.70
2018-09-11T20:41:07.672Z,69.20
2018-09-11T20:43:36.394Z,69.70
2018-09-11T20:46:04.948Z,70.20
2018-09-11T20:48:34.891Z,70.70
2018-09-11T20:51:03.326Z,71.20
2018-09-11T20:53:31.757Z,71.90
2018-09-11T20:56:08.477Z,72.90
2018-09-11T20:58:36.947Z,73.60
2018-09-11T21:01:05.456Z,74.60
2018-09-11T21:03:33.927Z,76.40
2018-09-11T21:06:02.527Z,76.50
2018-09-11T21:08:30.987Z,76.90
2018-09-11T21:10:59.456Z,77.90
2018-09-11T21:13:27.933Z,78.10
2018-09-11T21:15:56.422Z,78.30
2018-09-11T21:18:24.845Z,79.00
2018-09-11T21:20:53.338Z,80.50
2018-09-11T21:23:21.854Z,80.00
2018-09-11T21:25:50.342Z,80.40
2018-09-11T21:28:18.844Z,80.50
2018-09-11T21:30:47.345Z,80.80
2018-09-11T21:33:15.817Z,81.50
2018-09-11T21:35:44.360Z,81.40
2018-09-11T21:38:13.003Z,82.10
2018-09-11T21:40:41.546Z,82.60
2018-09-11T21:43:10.072Z,83.00
2018-09-11T21:45:38.699Z,83.40
2018-09-11T21:48:07.192Z,83.80
2018-09-11T21:50:35.649Z,84.30
2018-09-11T21:53:04.162Z,84.80
2018-09-11T21:55:32.617Z,85.80
2018-09-11T21:58:01.087Z,86.60
2018-09-11T22:00:29.635Z,86.50
2018-09-11T22:02:58.539Z,87.00
2018-09-11T22:05:26.986Z,87.40
2018-09-11T22:07:55.449Z,88.00
2018-09-11T22:10:23.983Z,88.40
2018-09-11T22:12:52.453Z,88.80
2018-09-11T22:15:21.119Z,89.50
2018-09-11T22:17:49.575Z,89.90
2018-09-11T22:20:18.026Z,90.20
2018-09-11T22:22:46.459Z,90.30
2018-09-11T22:25:18.809Z,90.50
2018-09-11T22:27:47.261Z,90.70
2018-09-11T22:30:15.730Z,90.90
2018-09-11T22:32:44.149Z,91.00
2018-09-11T22:35:12.573Z,91.00
2018-09-11T22:37:41.056Z,91.10
2018-09-11T22:40:11.581Z,91.10
2018-09-11T22:42:43.870Z,91.40
2018-09-11T22:45:12.551Z,91.70
2018-09-11T22:47:41.035Z,91.90
2018-09-11T22:50:09.534Z,92.00
2018-09-11T22:52:37.946Z,92.20
2018-09-11T22:55:06.565Z,92.70
2018-09-11T22:57:35.097Z,92.50
2018-09-11T23:00:03.919Z,92.70
2018-09-11T23:02:32.469Z,92.70
2018-09-11T23:05:01.065Z,92.70
2018-09-11T23:07:29.514Z,92.70
2018-09-11T23:09:57.945Z,92.90
2018-09-11T23:12:26.434Z,92.80
2018-09-11T23:14:54.880Z,93.10
2018-09-11T23:17:23.294Z,93.10
2018-09-11T23:19:51.710Z,93.60
2018-09-11T23:22:20.119Z,93.40
2018-09-11T23:24:48.624Z,93.50
2018-09-11T23:27:17.116Z,93.80
2018-09-11T23:29:45.542Z,93.80
2018-09-11T23:32:13.969Z,93.90
2018-09-11T23:34:42.407Z,94.10
2018-09-11T23:37:10.936Z,94.20
2018-09-11T23:39:39.699Z,94.10
2018-09-11T23:42:08.349Z,94.50
2018-09-11T23:44:37.038Z,94.20
2018-09-11T23:47:05.561Z,94.20
2018-09-11T23:49:33.977Z,94.30
2018-09-11T23:52:02.437Z,94.30
2018-09-11T23:54:30.884Z,94.40
2018-09-11T23:56:59.298Z,94.30
2018-09-11T23:59:27.705Z,94.70
